ADDS METAR Data INFO
IDs: Format: Raw Decoded Include TAF

Data at: 0802 UTC 23 Jan 2018

FNLU 230700Z 16005KT 9999 BKN080 28/23 Q1010 NOSIG

TAF COR FNLU 230500Z 2306/2412 VRB03KT 9000 FEW020TCU BKN030
  PROB30
  TEMPO 2308/2312 8000 -DZ FEW018
  BECMG 2312/2314 28010KT 9999 SCT023
  TEMPO 2314/2318 FEW020 FEW025TCU
  TEMPO 2320/2324 22005KT SCT020
  BECMG 2400/2402 VRB03KT BKN025


FNCA 230700Z 00000KT 9999 FEW009 FEW028CB BKN080 24/23 Q1011

TAF COR FNCA 230500Z 2306/2312 VRB03KT 7000 -TSRA SCT010 FEW025 BKN050
  BECMG 2310/2312 19007KT 9999 SCT023


FNBG 230600Z 00000KT 9999 FEW020 BKN100 25/21 Q1010

TAF FNBG 222245Z 2300/2312 VRB03KT 9999 SCT023
  BECMG 2306/2308 BKN020
  BECMG 2310/2312 31010KT FEW020


FNHU 230700Z 29006KT 9999 FEW008 SCT018 16/16 Q1019

TAF FNHU 222245Z 2300/2312 VRB03KT 8000 -TSRA SCT015 FEW023CB
  BECMG 2306/2309 -RADZ OVC018
  BECMG 2310/2312 9000 BKN025


FNUE 230700Z 00000KT 9999 BKN017 18/18 Q1018

TAF FNUE 222245Z 2300/2312 VRB03KT 9999 BKN025
  TEMPO 2308/2312 8000 -RA FEW010 BKN020


No METAR found for FNGI

TAF FNGI 222245Z 2300/2312 18010KT 9000 DZ BKN020
  TEMPO 2306/2312 SCT030


FNUB 230700Z 26004KT 9000 SCT002 BKN020 18/// Q1022

TAF FNUB 222245Z 2300/2312 VRB03KT 9999 BKN020 FEW025CB
  PROB40
  TEMPO 2301/2305 7000 -TSRA BKN015 FEW020CB
  BECMG 2310/2312 8000 -RA BKN018


FNMO 230700Z 00000KT 9999 SCT020 22/19 Q1011

TAF FNMO 222245Z 2300/2312 VRB03KT 9999 FEW020
  BECMG 2304/2307 BKN018
  BECMG 2310/2312 27010KT SCT025


No METAR found for FNUG
No TAF found for FNUG

FNMA 230700Z 09004KT 9999 +RA OVC090 20/18 Q1018

TAF FNMA 222245Z 2300/2312 VRB03KT 9999 BKN025 FEW030CB
  TEMPO 2300/2304 7000 -TSRA OVC020
  TEMPO 2306/2312 8000 -RADZ FEW010


FNSA 230700Z 00000KT 5000 DZ OVC020 20/19 Q1016

TAF FNSA 222245Z 2300/2312 VRB03KT 9999 BKN020
  TEMPO 2303/2312 8000 -RA FEW015 OVC018


FNSO 230600Z 00000KT 9000 FEW014 BKN070 ///// Q////

TAF FNSO 222245Z 2300/2312 VRB03KT 9999 FEW015 BKN025
  TEMPO 2303/2308 7000 -TSRA SCT012 BKN020
  TEMPO 2308/2312 8000 -RA FEW012 OVC020


FNBC 230600Z VRB02KT 0900 FG FEW007 BKN080 22/// Q1013
No TAF found for FNBC

No METAR found for FNSU
No TAF found for FNSU

FNDU 230700Z 00000KT 9999 BKN010 26/// Q1015

TAF FNDU 222245Z 2300/2312 VRB03KT 8000 DZ FEW010 BKN020
  BECMG 2309/2312 OVC018


No METAR found for FNME
No TAF found for FNME

No METAR found for FNCT
No TAF found for FNCT

FNKU 230700Z 18005KT 9999 FEW010 17/15 ////

TAF FNKU 222245Z 2300/2312 VRB03KT 5000 TSRA BKN015 FEW020CB
  TEMPO 2306/2312 7000 -RA FEW010 BKN018